AirNav   Jet Aviation Boston
 
 991 users online  

CYTZ Toronto/City Centre Airport
Toronto, Ontario, Canada

GOING TO TORONTO?


FAA INFORMATION EFFECTIVE 29 MARCH 2018

Location

FAA Identifier: CYTZ
Lat/Long: 43-37-39.0000N / 079-23-46.0000W
43-37.650000N / 079-23.766667W
43.6275000 / -79.3961111
(estimated)
Elevation: 251 ft. / 77 m (estimated)
Variation: 11W ()
Time zone: UTC -4 (UTC -5 during Standard Time)
Zip code: 14174

Airport Operations

Airport use: Open to the public
Activation date: 04/2005
Control tower: no
ARTCC: TORONTO CENTER
FSS: LONDON FIC FLIGHT SERVICE STATION
Attendance: 
Segmented circle: no

Nearby radio navigation aids

VOR radial/distance  VOR name  Freq  Var
YYZr110/10.4TORONTO VOR/DME112.1510W

Airport Services

Runway Information

Runway 8/26

Dimensions: 4000 x 150 ft. / 1219 x 46 m
Surface: asphalt
RUNWAY 8  RUNWAY 26
Traffic pattern: leftleft

Runway 6/24

Dimensions: 3000 x 150 ft. / 914 x 46 m
Surface: asphalt
RUNWAY 6  RUNWAY 24
Traffic pattern: leftleft

Runway 15/33

Dimensions: 2780 x 150 ft. / 847 x 46 m
Surface: asphalt
RUNWAY 15  RUNWAY 33
Traffic pattern: leftleft

Airport Ownership and Management from official FAA records

Ownership: Privately-owned

Instrument Procedures

There are no published instrument procedures at CYTZ.

Some nearby airports with instrument procedures:

KIAG - Niagara Falls International Airport (37 nm SE)
0G0 - North Buffalo Suburban Airport (44 nm SE)
KBUF - Buffalo Niagara International Airport (50 nm SE)
9G3 - Akron Airport (54 nm SE)
9G0 - Buffalo Airfield (55 nm SE)
 
Loc | Ops | Rwys | IFR | FBO | Links
Com | Nav | Svcs | Stats | Notes

AirNav Hotels Sweepstakes
 
Aerial photo
No photo
 
Airport distance calculator
Flying to Toronto/City Centre Airport? Find the distance to fly.

From to CYTZ

Sunrise and sunset
Times for 22-Apr-2018
 Local
(UTC-4)
 Zulu
(UTC)
Morning civil twilight05:5409:54
Sunrise06:2510:25
Sunset20:0800:08
Evening civil twilight20:3800:38

Current date and time
Zulu (UTC)  23-Apr-2018 01:09:41
Local (UTC-4)  22-Apr-2018 21:09:41
 
METAR
CYTZ 230000Z AUTO 27004KT 9SM CLR 11/M06 A3037 RMK SLP289
CYYZ 
11nm W 
230000Z 13005KT 15SM FEW260 13/M10 A3036 RMK CI2 SLP288
CYKZ 
14nm N 
230000Z 36005KT 15SM FEW240 13/M04 A3037 RMK CI2 SLP290
TAF
CYTZ 221938Z 2220/2320 17006KT P6SM SKC BECMG 2300/2302 03005KT BECMG 2317/2319 06010KT RMK FCST BASED ON AUTO OBS. NXT FCST BY 230200Z
CYYZ 
11nm W 
222041Z 2221/2324 14008KT P6SM SKC BECMG 2301/2303 02003KT FM231400 11010KT P6SM SKC FM232100 10012KT P6SM FEW040 BECMG 2322/2324 06006KT RMK NXT FCST BY 230000Z
CYKZ 
14nm N 
221740Z 2218/2306 VRB03KT P6SM SKC BECMG 2218/2220 15007KT BECMG 2222/2224 VRB03KT RMK NXT FCST BY 230000Z
NOTAMs
Click for the latest NOTAMs
NOTAMs are issued by the DoD/FAA and will open in a separate window not controlled by AirNav.

 

 
 

Would you like to see your business listed on this page?

 If your business provides an interesting product or service to pilots, flight crews, aircraft, or users of the Toronto/City Centre Airport, you should consider listing it here.  To start the listing process, click on the button below
 
Add a business
 

Other Pages about Toronto/City Centre Airport

Update a link
 
Copyright © AirNav, LLC. All rights reserved. Privacy Policy  Contact